sensor_id;sensor_type;location;lat;lon;timestamp;temperature;humidity
30764;DHT22;17497;51.476;7.770;2023-02-03T00:01:58;7.50;99.90
30764;DHT22;17497;51.476;7.770;2023-02-03T00:04:25;7.50;99.90
30764;DHT22;17497;51.476;7.770;2023-02-03T00:06:52;7.50;99.90
30764;DHT22;17497;51.476;7.770;2023-02-03T00:09:19;7.50;99.90
30764;DHT22;17497;51.476;7.770;2023-02-03T00:11:46;7.50;99.90
30764;DHT22;17497;51.476;7.770;2023-02-03T00:14:13;7.50;99.90
30764;DHT22;17497;51.476;7.770;2023-02-03T00:16:39;7.50;99.90
30764;DHT22;17497;51.476;7.770;2023-02-03T00:19:06;7.50;99.90
30764;DHT22;17497;51.476;7.770;2023-02-03T00:21:33;7.50;99.90
30764;DHT22;17497;51.476;7.770;2023-02-03T00:24:00;7.50;99.90
30764;DHT22;17497;51.476;7.770;2023-02-03T00:26:29;7.50;99.90
30764;DHT22;17497;51.476;7.770;2023-02-03T00:28:58;7.50;99.90
30764;DHT22;17497;51.476;7.770;2023-02-03T00:31:25;7.50;99.90
30764;DHT22;17497;51.476;7.770;2023-02-03T00:33:54;7.60;99.90
30764;DHT22;17497;51.476;7.770;2023-02-03T00:36:22;7.60;99.90
30764;DHT22;17497;51.476;7.770;2023-02-03T00:38:49;7.60;99.90
30764;DHT22;17497;51.476;7.770;2023-02-03T00:41:16;7.60;99.90
30764;DHT22;17497;51.476;7.770;2023-02-03T00:43:43;7.60;99.90
30764;DHT22;17497;51.476;7.770;2023-02-03T00:46:10;7.60;99.90
30764;DHT22;17497;51.476;7.770;2023-02-03T00:48:37;7.60;99.90
30764;DHT22;17497;51.476;7.770;2023-02-03T00:51:04;7.60;99.90
30764;DHT22;17497;51.476;7.770;2023-02-03T00:53:31;7.50;99.90
30764;DHT22;17497;51.476;7.770;2023-02-03T00:55:58;7.60;99.90
30764;DHT22;17497;51.476;7.770;2023-02-03T00:58:25;7.50;99.90
30764;DHT22;17497;51.476;7.770;2023-02-03T01:00:54;7.60;99.90
30764;DHT22;17497;51.476;7.770;2023-02-03T01:03:22;7.50;99.90
30764;DHT22;17497;51.476;7.770;2023-02-03T01:05:49;7.60;99.90
30764;DHT22;17497;51.476;7.770;2023-02-03T01:08:15;7.50;99.90
30764;DHT22;17497;51.476;7.770;2023-02-03T01:10:42;7.60;99.90
30764;DHT22;17497;51.476;7.770;2023-02-03T01:13:09;7.60;99.90
30764;DHT22;17497;51.476;7.770;2023-02-03T01:15:36;7.60;99.90
30764;DHT22;17497;51.476;7.770;2023-02-03T01:18:02;7.60;99.90
30764;DHT22;17497;51.476;7.770;2023-02-03T01:20:29;7.60;99.90
30764;DHT22;17497;51.476;7.770;2023-02-03T01:22:56;7.60;99.90
30764;DHT22;17497;51.476;7.770;2023-02-03T01:25:23;7.60;99.90
30764;DHT22;17497;51.476;7.770;2023-02-03T01:27:50;7.60;99.90
30764;DHT22;17497;51.476;7.770;2023-02-03T01:30:17;7.70;99.90
30764;DHT22;17497;51.476;7.770;2023-02-03T01:32:44;7.70;99.90
30764;DHT22;17497;51.476;7.770;2023-02-03T01:35:10;7.60;99.90
30764;DHT22;17497;51.476;7.770;2023-02-03T01:37:37;7.70;99.90
30764;DHT22;17497;51.476;7.770;2023-02-03T01:40:04;7.60;99.90
30764;DHT22;17497;51.476;7.770;2023-02-03T01:42:32;7.70;99.90
30764;DHT22;17497;51.476;7.770;2023-02-03T01:44:59;7.70;99.90
30764;DHT22;17497;51.476;7.770;2023-02-03T01:47:27;7.70;99.90
30764;DHT22;17497;51.476;7.770;2023-02-03T01:52:25;7.70;99.90
30764;DHT22;17497;51.476;7.770;2023-02-03T01:54:55;7.60;99.90
30764;DHT22;17497;51.476;7.770;2023-02-03T01:57:28;7.60;99.90
30764;DHT22;17497;51.476;7.770;2023-02-03T01:59:58;7.60;99.90
30764;DHT22;17497;51.476;7.770;2023-02-03T02:02:26;7.70;99.90
30764;DHT22;17497;51.476;7.770;2023-02-03T02:05:04;7.70;99.90
30764;DHT22;17497;51.476;7.770;2023-02-03T02:07:32;7.70;99.90
30764;DHT22;17497;51.476;7.770;2023-02-03T02:10:00;7.70;99.90
30764;DHT22;17497;51.476;7.770;2023-02-03T02:12:27;7.70;99.90
30764;DHT22;17497;51.476;7.770;2023-02-03T02:14:54;7.70;99.90
30764;DHT22;17497;51.476;7.770;2023-02-03T02:20:31;7.80;99.90
30764;DHT22;17497;51.476;7.770;2023-02-03T02:26:42;7.80;99.90
30764;DHT22;17497;51.476;7.770;2023-02-03T02:32:12;7.70;99.90
30764;DHT22;17497;51.476;7.770;2023-02-03T02:45:14;7.80;99.90
30764;DHT22;17497;51.476;7.770;2023-02-03T02:47:43;7.70;99.90
30764;DHT22;17497;51.476;7.770;2023-02-03T02:50:24;7.70;99.90
30764;DHT22;17497;51.476;7.770;2023-02-03T02:52:53;7.70;99.90
30764;DHT22;17497;51.476;7.770;2023-02-03T02:55:25;7.80;99.90
30764;DHT22;17497;51.476;7.770;2023-02-03T02:57:56;7.70;99.90
30764;DHT22;17497;51.476;7.770;2023-02-03T03:00:24;7.80;99.90
30764;DHT22;17497;51.476;7.770;2023-02-03T03:02:51;7.80;99.90
30764;DHT22;17497;51.476;7.770;2023-02-03T03:05:18;7.80;99.90
30764;DHT22;17497;51.476;7.770;2023-02-03T03:07:54;7.70;99.90
30764;DHT22;17497;51.476;7.770;2023-02-03T03:10:24;7.70;99.90
30764;DHT22;17497;51.476;7.770;2023-02-03T03:12:58;7.80;99.90
30764;DHT22;17497;51.476;7.770;2023-02-03T03:15:30;7.80;99.90
30764;DHT22;17497;51.476;7.770;2023-02-03T03:18:03;7.80;99.90
30764;DHT22;17497;51.476;7.770;2023-02-03T03:20:35;7.80;99.90
30764;DHT22;17497;51.476;7.770;2023-02-03T03:23:06;7.80;99.90
30764;DHT22;17497;51.476;7.770;2023-02-03T03:25:45;7.80;99.90
30764;DHT22;17497;51.476;7.770;2023-02-03T03:28:20;7.80;99.90
30764;DHT22;17497;51.476;7.770;2023-02-03T03:30:50;7.80;99.90
30764;DHT22;17497;51.476;7.770;2023-02-03T03:33:17;7.80;99.90
30764;DHT22;17497;51.476;7.770;2023-02-03T03:35:48;7.80;99.90
30764;DHT22;17497;51.476;7.770;2023-02-03T03:41:08;7.80;99.90
30764;DHT22;17497;51.476;7.770;2023-02-03T03:43:40;7.80;99.90
30764;DHT22;17497;51.476;7.770;2023-02-03T03:46:22;7.80;99.90
30764;DHT22;17497;51.476;7.770;2023-02-03T03:49:01;7.80;99.90
30764;DHT22;17497;51.476;7.770;2023-02-03T03:51:46;7.80;99.90
30764;DHT22;17497;51.476;7.770;2023-02-03T03:54:16;7.80;99.90
30764;DHT22;17497;51.476;7.770;2023-02-03T03:56:57;7.80;99.90
30764;DHT22;17497;51.476;7.770;2023-02-03T03:59:30;7.80;99.90
30764;DHT22;17497;51.476;7.770;2023-02-03T04:01:58;7.80;99.90
30764;DHT22;17497;51.476;7.770;2023-02-03T04:04:32;7.80;99.90
30764;DHT22;17497;51.476;7.770;2023-02-03T04:06:59;7.80;99.90
30764;DHT22;17497;51.476;7.770;2023-02-03T04:09:26;7.80;99.90
30764;DHT22;17497;51.476;7.770;2023-02-03T04:11:52;7.80;99.90
30764;DHT22;17497;51.476;7.770;2023-02-03T04:14:30;7.80;99.90
30764;DHT22;17497;51.476;7.770;2023-02-03T04:16:57;7.80;99.90
30764;DHT22;17497;51.476;7.770;2023-02-03T04:19:24;7.80;99.90
30764;DHT22;17497;51.476;7.770;2023-02-03T04:21:51;7.80;99.90
30764;DHT22;17497;51.476;7.770;2023-02-03T04:24:18;7.80;99.90
30764;DHT22;17497;51.476;7.770;2023-02-03T04:26:45;7.80;99.90
30764;DHT22;17497;51.476;7.770;2023-02-03T04:29:11;7.80;99.90
30764;DHT22;17497;51.476;7.770;2023-02-03T04:31:38;7.80;99.90
30764;DHT22;17497;51.476;7.770;2023-02-03T04:34:05;7.80;99.90
30764;DHT22;17497;51.476;7.770;2023-02-03T04:36:32;7.80;99.90
30764;DHT22;17497;51.476;7.770;2023-02-03T04:38:59;7.80;99.90
30764;DHT22;17497;51.476;7.770;2023-02-03T04:41:25;7.80;99.90
30764;DHT22;17497;51.476;7.770;2023-02-03T04:43:52;7.80;99.90
30764;DHT22;17497;51.476;7.770;2023-02-03T04:46:19;7.80;99.90
30764;DHT22;17497;51.476;7.770;2023-02-03T04:48:45;7.80;99.90
30764;DHT22;17497;51.476;7.770;2023-02-03T04:51:12;7.90;99.90
30764;DHT22;17497;51.476;7.770;2023-02-03T04:53:39;7.80;99.90
30764;DHT22;17497;51.476;7.770;2023-02-03T04:56:06;7.80;99.90
30764;DHT22;17497;51.476;7.770;2023-02-03T04:58:33;7.90;99.90
30764;DHT22;17497;51.476;7.770;2023-02-03T05:01:05;7.90;99.90
30764;DHT22;17497;51.476;7.770;2023-02-03T05:03:34;7.80;99.90
30764;DHT22;17497;51.476;7.770;2023-02-03T05:06:01;7.80;99.90
30764;DHT22;17497;51.476;7.770;2023-02-03T05:08:29;7.90;99.90
30764;DHT22;17497;51.476;7.770;2023-02-03T05:10:56;7.80;99.90
30764;DHT22;17497;51.476;7.770;2023-02-03T05:13:25;7.80;99.90
30764;DHT22;17497;51.476;7.770;2023-02-03T05:15:51;7.90;99.90
30764;DHT22;17497;51.476;7.770;2023-02-03T05:18:18;7.90;99.90
30764;DHT22;17497;51.476;7.770;2023-02-03T05:20:45;7.90;99.90
30764;DHT22;17497;51.476;7.770;2023-02-03T05:23:12;7.90;99.90
30764;DHT22;17497;51.476;7.770;2023-02-03T05:25:39;7.90;99.90
30764;DHT22;17497;51.476;7.770;2023-02-03T05:28:05;7.90;99.90
30764;DHT22;17497;51.476;7.770;2023-02-03T05:30:32;7.90;99.90
30764;DHT22;17497;51.476;7.770;2023-02-03T05:32:59;7.90;99.90
30764;DHT22;17497;51.476;7.770;2023-02-03T05:35:26;7.90;99.90
30764;DHT22;17497;51.476;7.770;2023-02-03T05:37:53;7.80;99.90
30764;DHT22;17497;51.476;7.770;2023-02-03T05:40:19;7.80;99.90
30764;DHT22;17497;51.476;7.770;2023-02-03T05:43:05;7.90;99.90
30764;DHT22;17497;51.476;7.770;2023-02-03T05:45:31;7.90;99.90
30764;DHT22;17497;51.476;7.770;2023-02-03T05:47:58;7.90;99.90
30764;DHT22;17497;51.476;7.770;2023-02-03T05:50:25;7.90;99.90
30764;DHT22;17497;51.476;7.770;2023-02-03T05:52:53;7.90;99.90
30764;DHT22;17497;51.476;7.770;2023-02-03T05:55:20;7.90;99.90
30764;DHT22;17497;51.476;7.770;2023-02-03T05:57:46;7.90;99.90
30764;DHT22;17497;51.476;7.770;2023-02-03T06:00:13;7.90;99.90
30764;DHT22;17497;51.476;7.770;2023-02-03T06:02:40;7.90;99.90
30764;DHT22;17497;51.476;7.770;2023-02-03T06:05:07;7.90;99.90
30764;DHT22;17497;51.476;7.770;2023-02-03T06:07:34;7.90;99.90
30764;DHT22;17497;51.476;7.770;2023-02-03T06:10:01;8.00;99.90
30764;DHT22;17497;51.476;7.770;2023-02-03T06:12:28;8.00;99.90
30764;DHT22;17497;51.476;7.770;2023-02-03T06:14:55;8.00;99.90
30764;DHT22;17497;51.476;7.770;2023-02-03T06:22:32;8.00;99.90
30764;DHT22;17497;51.476;7.770;2023-02-03T06:25:00;8.00;99.90
30764;DHT22;17497;51.476;7.770;2023-02-03T06:27:26;8.00;99.90
30764;DHT22;17497;51.476;7.770;2023-02-03T06:29:53;8.00;99.90
30764;DHT22;17497;51.476;7.770;2023-02-03T06:32:20;7.90;99.90
30764;DHT22;17497;51.476;7.770;2023-02-03T06:34:47;8.00;99.90
30764;DHT22;17497;51.476;7.770;2023-02-03T06:37:15;8.00;99.90
30764;DHT22;17497;51.476;7.770;2023-02-03T06:39:42;8.00;99.90
30764;DHT22;17497;51.476;7.770;2023-02-03T06:42:09;8.00;99.90
30764;DHT22;17497;51.476;7.770;2023-02-03T06:44:36;8.00;99.90
30764;DHT22;17497;51.476;7.770;2023-02-03T06:47:03;8.00;99.90
30764;DHT22;17497;51.476;7.770;2023-02-03T06:49:30;8.00;99.90
30764;DHT22;17497;51.476;7.770;2023-02-03T06:51:58;8.00;99.90
30764;DHT22;17497;51.476;7.770;2023-02-03T06:54:24;8.00;99.90
30764;DHT22;17497;51.476;7.770;2023-02-03T06:56:51;8.00;99.90
30764;DHT22;17497;51.476;7.770;2023-02-03T06:59:18;8.00;99.90
30764;DHT22;17497;51.476;7.770;2023-02-03T07:01:45;8.00;99.90
30764;DHT22;17497;51.476;7.770;2023-02-03T07:04:12;8.00;99.90
30764;DHT22;17497;51.476;7.770;2023-02-03T07:06:40;8.00;99.90
30764;DHT22;17497;51.476;7.770;2023-02-03T07:09:07;8.00;99.90
30764;DHT22;17497;51.476;7.770;2023-02-03T07:11:34;8.00;99.90
30764;DHT22;17497;51.476;7.770;2023-02-03T07:14:01;8.00;99.90
30764;DHT22;17497;51.476;7.770;2023-02-03T07:16:28;7.90;99.90
30764;DHT22;17497;51.476;7.770;2023-02-03T07:18:54;7.90;99.90
30764;DHT22;17497;51.476;7.770;2023-02-03T07:21:21;7.80;99.90
30764;DHT22;17497;51.476;7.770;2023-02-03T07:23:49;7.70;99.90
30764;DHT22;17497;51.476;7.770;2023-02-03T07:26:16;7.60;99.90
30764;DHT22;17497;51.476;7.770;2023-02-03T07:28:44;7.60;99.90
30764;DHT22;17497;51.476;7.770;2023-02-03T07:31:11;7.50;99.90
30764;DHT22;17497;51.476;7.770;2023-02-03T07:33:38;7.50;99.90
30764;DHT22;17497;51.476;7.770;2023-02-03T07:36:06;7.40;99.90
30764;DHT22;17497;51.476;7.770;2023-02-03T07:38:33;7.40;99.90
30764;DHT22;17497;51.476;7.770;2023-02-03T07:41:00;7.40;99.90
30764;DHT22;17497;51.476;7.770;2023-02-03T07:43:27;7.40;99.90
30764;DHT22;17497;51.476;7.770;2023-02-03T07:45:53;7.30;99.90
30764;DHT22;17497;51.476;7.770;2023-02-03T07:48:20;7.40;99.90
30764;DHT22;17497;51.476;7.770;2023-02-03T07:50:47;7.40;99.90
30764;DHT22;17497;51.476;7.770;2023-02-03T07:53:16;7.40;99.90
30764;DHT22;17497;51.476;7.770;2023-02-03T07:55:43;7.40;99.90
30764;DHT22;17497;51.476;7.770;2023-02-03T07:58:10;7.50;99.90
30764;DHT22;17497;51.476;7.770;2023-02-03T08:00:37;7.50;99.90
30764;DHT22;17497;51.476;7.770;2023-02-03T08:03:04;7.50;99.90
30764;DHT22;17497;51.476;7.770;2023-02-03T08:05:32;7.60;99.90
30764;DHT22;17497;51.476;7.770;2023-02-03T08:07:59;7.60;99.90
30764;DHT22;17497;51.476;7.770;2023-02-03T08:10:26;7.60;99.90
30764;DHT22;17497;51.476;7.770;2023-02-03T08:12:54;7.70;99.90
30764;DHT22;17497;51.476;7.770;2023-02-03T08:15:21;7.70;99.90
30764;DHT22;17497;51.476;7.770;2023-02-03T08:17:49;7.70;99.90
30764;DHT22;17497;51.476;7.770;2023-02-03T08:20:16;7.70;99.90
30764;DHT22;17497;51.476;7.770;2023-02-03T08:22:43;7.80;99.90
30764;DHT22;17497;51.476;7.770;2023-02-03T08:25:10;7.80;99.90
30764;DHT22;17497;51.476;7.770;2023-02-03T08:27:38;7.80;99.90
30764;DHT22;17497;51.476;7.770;2023-02-03T08:30:06;7.80;99.90
30764;DHT22;17497;51.476;7.770;2023-02-03T08:32:33;7.80;99.90
30764;DHT22;17497;51.476;7.770;2023-02-03T08:35:00;7.80;99.90
30764;DHT22;17497;51.476;7.770;2023-02-03T08:37:27;7.80;99.90
30764;DHT22;17497;51.476;7.770;2023-02-03T08:39:57;7.90;99.90
30764;DHT22;17497;51.476;7.770;2023-02-03T08:42:24;7.90;99.90
30764;DHT22;17497;51.476;7.770;2023-02-03T08:44:51;7.80;99.90
30764;DHT22;17497;51.476;7.770;2023-02-03T08:47:18;7.80;99.90
30764;DHT22;17497;51.476;7.770;2023-02-03T08:49:46;7.90;99.90
30764;DHT22;17497;51.476;7.770;2023-02-03T08:52:15;7.90;99.90
30764;DHT22;17497;51.476;7.770;2023-02-03T08:54:45;7.90;99.90
30764;DHT22;17497;51.476;7.770;2023-02-03T08:57:13;7.90;99.90
30764;DHT22;17497;51.476;7.770;2023-02-03T08:59:43;7.80;99.90
30764;DHT22;17497;51.476;7.770;2023-02-03T09:02:14;7.80;99.90
30764;DHT22;17497;51.476;7.770;2023-02-03T09:04:44;7.70;99.90
30764;DHT22;17497;51.476;7.770;2023-02-03T09:07:12;7.60;99.90
30764;DHT22;17497;51.476;7.770;2023-02-03T09:09:40;7.60;99.90
30764;DHT22;17497;51.476;7.770;2023-02-03T09:12:07;7.50;99.90
30764;DHT22;17497;51.476;7.770;2023-02-03T09:14:36;7.50;99.90
30764;DHT22;17497;51.476;7.770;2023-02-03T09:17:04;7.50;99.90
30764;DHT22;17497;51.476;7.770;2023-02-03T09:19:33;7.50;99.90
30764;DHT22;17497;51.476;7.770;2023-02-03T09:22:02;7.50;99.90
30764;DHT22;17497;51.476;7.770;2023-02-03T09:24:29;7.50;99.90
30764;DHT22;17497;51.476;7.770;2023-02-03T09:27:00;7.50;99.90
30764;DHT22;17497;51.476;7.770;2023-02-03T09:29:27;7.50;99.90
30764;DHT22;17497;51.476;7.770;2023-02-03T09:31:54;7.60;99.90
30764;DHT22;17497;51.476;7.770;2023-02-03T09:34:21;7.60;99.90
30764;DHT22;17497;51.476;7.770;2023-02-03T09:36:48;7.60;99.90
30764;DHT22;17497;51.476;7.770;2023-02-03T09:39:16;7.70;99.90
30764;DHT22;17497;51.476;7.770;2023-02-03T09:44:46;7.70;99.90
30764;DHT22;17497;51.476;7.770;2023-02-03T09:47:17;7.70;99.90
30764;DHT22;17497;51.476;7.770;2023-02-03T09:49:58;7.80;99.90
30764;DHT22;17497;51.476;7.770;2023-02-03T09:52:28;7.80;99.90
30764;DHT22;17497;51.476;7.770;2023-02-03T09:55:16;7.80;99.90
30764;DHT22;17497;51.476;7.770;2023-02-03T09:58:04;7.80;99.90
30764;DHT22;17497;51.476;7.770;2023-02-03T10:00:35;7.80;99.90
30764;DHT22;17497;51.476;7.770;2023-02-03T10:11:53;7.90;99.90
30764;DHT22;17497;51.476;7.770;2023-02-03T10:17:41;7.90;99.90
30764;DHT22;17497;51.476;7.770;2023-02-03T10:22:59;7.90;99.90
30764;DHT22;17497;51.476;7.770;2023-02-03T10:25:35;7.90;99.90
30764;DHT22;17497;51.476;7.770;2023-02-03T10:28:17;7.90;99.90
30764;DHT22;17497;51.476;7.770;2023-02-03T10:30:49;7.90;99.90
30764;DHT22;17497;51.476;7.770;2023-02-03T10:33:18;7.90;99.90
30764;DHT22;17497;51.476;7.770;2023-02-03T10:35:49;7.90;99.90
30764;DHT22;17497;51.476;7.770;2023-02-03T10:38:38;7.90;99.90
30764;DHT22;17497;51.476;7.770;2023-02-03T10:41:09;7.90;99.90
30764;DHT22;17497;51.476;7.770;2023-02-03T10:43:36;8.00;99.90
30764;DHT22;17497;51.476;7.770;2023-02-03T10:46:29;8.00;99.90
30764;DHT22;17497;51.476;7.770;2023-02-03T10:48:57;7.90;99.90
30764;DHT22;17497;51.476;7.770;2023-02-03T10:53:52;7.90;99.90
30764;DHT22;17497;51.476;7.770;2023-02-03T10:56:35;7.90;99.90
30764;DHT22;17497;51.476;7.770;2023-02-03T10:59:03;7.90;99.90
30764;DHT22;17497;51.476;7.770;2023-02-03T11:01:41;7.90;99.90
30764;DHT22;17497;51.476;7.770;2023-02-03T11:06:58;7.90;99.90
30764;DHT22;17497;51.476;7.770;2023-02-03T11:09:37;7.90;99.90
30764;DHT22;17497;51.476;7.770;2023-02-03T11:12:18;7.90;99.90
30764;DHT22;17497;51.476;7.770;2023-02-03T11:14:50;8.00;99.90
30764;DHT22;17497;51.476;7.770;2023-02-03T11:17:26;8.00;99.90
30764;DHT22;17497;51.476;7.770;2023-02-03T11:20:11;8.10;99.90
30764;DHT22;17497;51.476;7.770;2023-02-03T11:22:42;8.00;99.90
30764;DHT22;17497;51.476;7.770;2023-02-03T11:25:36;8.10;99.90
30764;DHT22;17497;51.476;7.770;2023-02-03T11:28:04;8.10;99.90
30764;DHT22;17497;51.476;7.770;2023-02-03T11:30:33;8.10;99.90
30764;DHT22;17497;51.476;7.770;2023-02-03T11:33:01;8.10;99.90
30764;DHT22;17497;51.476;7.770;2023-02-03T11:35:30;8.10;99.90
30764;DHT22;17497;51.476;7.770;2023-02-03T11:38:00;8.20;99.90
30764;DHT22;17497;51.476;7.770;2023-02-03T11:40:29;8.30;99.90
30764;DHT22;17497;51.476;7.770;2023-02-03T11:45:40;8.30;99.90
30764;DHT22;17497;51.476;7.770;2023-02-03T11:48:29;8.30;99.90
30764;DHT22;17497;51.476;7.770;2023-02-03T12:05:40;8.20;99.90
30764;DHT22;17497;51.476;7.770;2023-02-03T12:13:43;8.10;99.90
30764;DHT22;17497;51.476;7.770;2023-02-03T12:27:14;8.30;99.90
30764;DHT22;17497;51.476;7.770;2023-02-03T12:29:48;8.30;99.90
30764;DHT22;17497;51.476;7.770;2023-02-03T12:32:28;8.30;99.90
30764;DHT22;17497;51.476;7.770;2023-02-03T12:35:10;8.30;99.90
30764;DHT22;17497;51.476;7.770;2023-02-03T12:37:47;8.40;99.90
30764;DHT22;17497;51.476;7.770;2023-02-03T12:40:35;8.40;99.90
30764;DHT22;17497;51.476;7.770;2023-02-03T12:43:43;8.50;99.90
30764;DHT22;17497;51.476;7.770;2023-02-03T12:48:53;8.60;99.90
30764;DHT22;17497;51.476;7.770;2023-02-03T12:59:55;8.70;99.90
30764;DHT22;17497;51.476;7.770;2023-02-03T13:02:28;8.80;99.90
30764;DHT22;17497;51.476;7.770;2023-02-03T13:05:12;8.70;99.90
30764;DHT22;17497;51.476;7.770;2023-02-03T13:07:48;8.70;99.90
30764;DHT22;17497;51.476;7.770;2023-02-03T13:10:30;8.70;99.90
30764;DHT22;17497;51.476;7.770;2023-02-03T13:12:59;8.70;99.90
30764;DHT22;17497;51.476;7.770;2023-02-03T13:15:42;8.70;99.90
30764;DHT22;17497;51.476;7.770;2023-02-03T13:18:34;8.70;99.90
30764;DHT22;17497;51.476;7.770;2023-02-03T13:21:02;8.70;99.90
30764;DHT22;17497;51.476;7.770;2023-02-03T13:23:29;8.70;99.90
30764;DHT22;17497;51.476;7.770;2023-02-03T13:31:40;8.20;99.90
30764;DHT22;17497;51.476;7.770;2023-02-03T13:37:07;8.00;99.90
30764;DHT22;17497;51.476;7.770;2023-02-03T13:39:45;7.90;99.90
30764;DHT22;17497;51.476;7.770;2023-02-03T13:42:24;7.90;99.90
30764;DHT22;17497;51.476;7.770;2023-02-03T13:47:45;7.80;99.90
30764;DHT22;17497;51.476;7.770;2023-02-03T13:50:30;7.80;99.90
30764;DHT22;17497;51.476;7.770;2023-02-03T13:53:01;7.80;99.90
30764;DHT22;17497;51.476;7.770;2023-02-03T13:55:36;7.80;99.90
30764;DHT22;17497;51.476;7.770;2023-02-03T13:58:06;7.70;99.90
30764;DHT22;17497;51.476;7.770;2023-02-03T14:03:16;7.70;99.90
30764;DHT22;17497;51.476;7.770;2023-02-03T14:05:45;7.70;99.90
30764;DHT22;17497;51.476;7.770;2023-02-03T14:16:40;7.70;99.90
30764;DHT22;17497;51.476;7.770;2023-02-03T14:19:12;7.70;99.90
30764;DHT22;17497;51.476;7.770;2023-02-03T14:24:33;7.70;99.90
30764;DHT22;17497;51.476;7.770;2023-02-03T14:27:05;7.70;99.90
30764;DHT22;17497;51.476;7.770;2023-02-03T14:29:40;7.70;99.90
30764;DHT22;17497;51.476;7.770;2023-02-03T14:32:07;7.70;99.90
30764;DHT22;17497;51.476;7.770;2023-02-03T14:34:39;7.70;99.90
30764;DHT22;17497;51.476;7.770;2023-02-03T14:37:11;7.70;99.90
30764;DHT22;17497;51.476;7.770;2023-02-03T14:59:24;7.70;99.90
30764;DHT22;17497;51.476;7.770;2023-02-03T15:04:22;7.70;99.90
30764;DHT22;17497;51.476;7.770;2023-02-03T15:06:51;7.70;99.90
30764;DHT22;17497;51.476;7.770;2023-02-03T15:09:35;7.70;99.90
30764;DHT22;17497;51.476;7.770;2023-02-03T15:12:24;7.70;99.90
30764;DHT22;17497;51.476;7.770;2023-02-03T15:15:12;7.70;99.90
30764;DHT22;17497;51.476;7.770;2023-02-03T15:17:38;7.70;99.90
30764;DHT22;17497;51.476;7.770;2023-02-03T15:20:32;7.70;99.90
30764;DHT22;17497;51.476;7.770;2023-02-03T15:22:59;7.70;99.90
30764;DHT22;17497;51.476;7.770;2023-02-03T15:25:30;7.80;99.90
30764;DHT22;17497;51.476;7.770;2023-02-03T15:28:20;7.70;99.90
30764;DHT22;17497;51.476;7.770;2023-02-03T15:33:20;7.70;99.90
30764;DHT22;17497;51.476;7.770;2023-02-03T15:35:52;7.80;99.90
30764;DHT22;17497;51.476;7.770;2023-02-03T15:38:26;7.80;99.90
30764;DHT22;17497;51.476;7.770;2023-02-03T15:40:55;7.70;99.90
30764;DHT22;17497;51.476;7.770;2023-02-03T15:48:42;7.70;99.90
30764;DHT22;17497;51.476;7.770;2023-02-03T15:51:17;7.70;99.90
30764;DHT22;17497;51.476;7.770;2023-02-03T15:53:52;7.70;99.90
30764;DHT22;17497;51.476;7.770;2023-02-03T15:58:52;7.70;99.90
30764;DHT22;17497;51.476;7.770;2023-02-03T16:01:22;7.70;99.90
30764;DHT22;17497;51.476;7.770;2023-02-03T16:03:51;7.70;99.90
30764;DHT22;17497;51.476;7.770;2023-02-03T16:06:27;7.70;99.90
30764;DHT22;17497;51.476;7.770;2023-02-03T16:08:57;7.70;99.90
30764;DHT22;17497;51.476;7.770;2023-02-03T16:11:32;7.70;99.90
30764;DHT22;17497;51.476;7.770;2023-02-03T16:14:02;7.70;99.90
30764;DHT22;17497;51.476;7.770;2023-02-03T16:16:42;7.70;99.90
30764;DHT22;17497;51.476;7.770;2023-02-03T16:19:29;7.70;99.90
30764;DHT22;17497;51.476;7.770;2023-02-03T16:21:58;7.70;99.90
30764;DHT22;17497;51.476;7.770;2023-02-03T16:27:21;7.70;99.90
30764;DHT22;17497;51.476;7.770;2023-02-03T16:29:47;7.70;99.90
30764;DHT22;17497;51.476;7.770;2023-02-03T16:32:33;7.70;99.90
30764;DHT22;17497;51.476;7.770;2023-02-03T16:35:19;7.70;99.90
30764;DHT22;17497;51.476;7.770;2023-02-03T16:38:14;7.60;99.90
30764;DHT22;17497;51.476;7.770;2023-02-03T16:41:00;7.60;99.90
30764;DHT22;17497;51.476;7.770;2023-02-03T16:43:45;7.70;99.90
30764;DHT22;17497;51.476;7.770;2023-02-03T16:46:30;7.70;99.90
30764;DHT22;17497;51.476;7.770;2023-02-03T16:49:16;7.60;99.90
30764;DHT22;17497;51.476;7.770;2023-02-03T16:52:02;7.60;99.90
30764;DHT22;17497;51.476;7.770;2023-02-03T16:54:29;7.60;99.90
30764;DHT22;17497;51.476;7.770;2023-02-03T16:56:56;7.60;99.90
30764;DHT22;17497;51.476;7.770;2023-02-03T16:59:24;7.60;99.90
30764;DHT22;17497;51.476;7.770;2023-02-03T17:01:51;7.60;99.90
30764;DHT22;17497;51.476;7.770;2023-02-03T17:04:18;7.60;99.90
30764;DHT22;17497;51.476;7.770;2023-02-03T17:06:45;7.60;99.90
30764;DHT22;17497;51.476;7.770;2023-02-03T17:09:14;7.50;99.90
30764;DHT22;17497;51.476;7.770;2023-02-03T17:11:41;7.50;99.90
30764;DHT22;17497;51.476;7.770;2023-02-03T17:14:08;7.50;99.90
30764;DHT22;17497;51.476;7.770;2023-02-03T17:16:34;7.50;99.90
30764;DHT22;17497;51.476;7.770;2023-02-03T17:19:01;7.50;99.90
30764;DHT22;17497;51.476;7.770;2023-02-03T17:21:29;7.50;99.90
30764;DHT22;17497;51.476;7.770;2023-02-03T17:23:59;7.60;99.90
30764;DHT22;17497;51.476;7.770;2023-02-03T17:26:26;7.50;99.90
30764;DHT22;17497;51.476;7.770;2023-02-03T17:28:52;7.50;99.90
30764;DHT22;17497;51.476;7.770;2023-02-03T17:31:19;7.50;99.90
30764;DHT22;17497;51.476;7.770;2023-02-03T17:33:50;7.50;99.90
30764;DHT22;17497;51.476;7.770;2023-02-03T17:36:18;7.50;99.90
30764;DHT22;17497;51.476;7.770;2023-02-03T17:38:53;7.50;99.90
30764;DHT22;17497;51.476;7.770;2023-02-03T17:41:40;7.40;99.90
30764;DHT22;17497;51.476;7.770;2023-02-03T17:44:24;7.40;99.90
30764;DHT22;17497;51.476;7.770;2023-02-03T17:47:09;7.40;99.90
30764;DHT22;17497;51.476;7.770;2023-02-03T17:49:53;7.40;99.90
30764;DHT22;17497;51.476;7.770;2023-02-03T17:52:37;7.40;99.90
30764;DHT22;17497;51.476;7.770;2023-02-03T17:55:21;7.40;99.90
30764;DHT22;17497;51.476;7.770;2023-02-03T17:57:48;7.40;99.90
30764;DHT22;17497;51.476;7.770;2023-02-03T18:00:15;7.40;99.90
30764;DHT22;17497;51.476;7.770;2023-02-03T18:02:42;7.30;99.90
30764;DHT22;17497;51.476;7.770;2023-02-03T18:05:09;7.30;99.90
30764;DHT22;17497;51.476;7.770;2023-02-03T18:07:36;7.30;99.90
30764;DHT22;17497;51.476;7.770;2023-02-03T18:10:04;7.30;99.90
30764;DHT22;17497;51.476;7.770;2023-02-03T18:12:31;7.30;99.90
30764;DHT22;17497;51.476;7.770;2023-02-03T18:14:58;7.30;99.90
30764;DHT22;17497;51.476;7.770;2023-02-03T18:20:00;7.30;99.90
30764;DHT22;17497;51.476;7.770;2023-02-03T18:22:28;7.30;99.90
30764;DHT22;17497;51.476;7.770;2023-02-03T18:24:55;7.30;99.90
30764;DHT22;17497;51.476;7.770;2023-02-03T18:27:22;7.30;99.90
30764;DHT22;17497;51.476;7.770;2023-02-03T18:29:50;7.30;99.90
30764;DHT22;17497;51.476;7.770;2023-02-03T18:32:16;7.30;99.90
30764;DHT22;17497;51.476;7.770;2023-02-03T18:34:43;7.30;99.90
30764;DHT22;17497;51.476;7.770;2023-02-03T18:37:11;7.30;99.90
30764;DHT22;17497;51.476;7.770;2023-02-03T18:39:37;7.30;99.90
30764;DHT22;17497;51.476;7.770;2023-02-03T18:42:04;7.30;99.90
30764;DHT22;17497;51.476;7.770;2023-02-03T18:44:32;7.30;99.90
30764;DHT22;17497;51.476;7.770;2023-02-03T18:46:59;7.30;99.90
30764;DHT22;17497;51.476;7.770;2023-02-03T18:49:34;7.30;99.90